Time;durP1;ratioP1;P1;durP2;ratioP2;P2;SDS_P1;SDS_P2;PMS_P1;PMS_P2;Temp;Humidity;BMP_temperature;BMP_pressure;BME280_temperature;BME280_humidity;BME280_pressure;Samples;Min_cycle;Max_cycle;Signal;HPM_P1;HPM_P2
2022/05/27 00:01:49;;;;;;;2.35;1.05;;;;;;;;;;5120328;27;20039;-39
2022/05/27 00:04:14;;;;;;;10.13;1.67;;;;;;;;;;5117571;27;20517;-41
2022/05/27 00:06:40;;;;;;;2.33;0.90;;;;;;;;;;5123878;27;20621;-42
2022/05/27 00:09:05;;;;;;;1.65;1.05;;;;;;;;;;5112295;27;20054;-39
2022/05/27 00:11:30;;;;;;;4.55;1.05;;;;;;;;;;5117654;27;20047;-39
2022/05/27 00:13:56;;;;;;;2.40;0.80;;;;;;;;;;5107248;27;20051;-41
2022/05/27 00:16:21;;;;;;;2.35;1.20;;;;;;;;;;5111638;27;20043;-43
2022/05/27 00:18:47;;;;;;;3.60;1.25;;;;;;;;;;5120399;27;20515;-40
2022/05/27 00:21:12;;;;;;;5.80;0.88;;;;;;;;;;5121778;27;20050;-43
2022/05/27 00:23:38;;;;;;;12.18;1.38;;;;;;;;;;5119164;27;20040;-39
2022/05/27 00:26:03;;;;;;;7.13;0.98;;;;;;;;;;5108889;27;20043;-41
2022/05/27 00:28:29;;;;;;;2.55;1.45;;;;;;;;;;5117144;27;20047;-38
2022/05/27 00:30:54;;;;;;;8.70;1.77;;;;;;;;;;5115619;27;20047;-40
2022/05/27 00:33:20;;;;;;;3.38;1.75;;;;;;;;;;5101931;27;20039;-41
2022/05/27 00:35:45;;;;;;;6.45;2.03;;;;;;;;;;5109634;27;20535;-39
2022/05/27 00:38:10;;;;;;;4.88;1.63;;;;;;;;;;5115310;27;20040;-40
2022/05/27 00:40:40;;;;;;;3.47;1.60;;;;;;;;;;5120432;27;20075;-41
2022/05/27 00:43:05;;;;;;;8.65;2.15;;;;;;;;;;5109878;27;20044;-39
2022/05/27 00:45:33;;;;;;;2.00;1.63;;;;;;;;;;5107665;27;20040;-41
2022/05/27 00:47:59;;;;;;;3.33;1.30;;;;;;;;;;5116811;27;20058;-38
2022/05/27 00:50:27;;;;;;;6.75;1.52;;;;;;;;;;5113357;27;20385;-43
2022/05/27 00:52:52;;;;;;;2.47;1.17;;;;;;;;;;5109744;27;20670;-38
2022/05/27 00:55:22;;;;;;;8.40;2.85;;;;;;;;;;5109760;27;20119;-41
2022/05/27 00:57:50;;;;;;;5.03;2.13;;;;;;;;;;5107131;27;20046;-38
2022/05/27 01:00:18;;;;;;;2.00;1.02;;;;;;;;;;5110748;27;20889;-42
2022/05/27 01:02:43;;;;;;;2.72;1.23;;;;;;;;;;5110840;27;20515;-39
2022/05/27 01:05:11;;;;;;;9.65;2.15;;;;;;;;;;5109394;27;20044;-43
2022/05/27 01:07:37;;;;;;;4.13;1.55;;;;;;;;;;5109606;27;20442;-39
2022/05/27 01:10:04;;;;;;;2.83;1.15;;;;;;;;;;5119969;27;20047;-41
2022/05/27 01:12:29;;;;;;;1.73;0.85;;;;;;;;;;5104697;27;20040;-40
2022/05/27 01:15:07;;;;;;;1.63;0.75;;;;;;;;;;5108199;27;20039;-44
2022/05/27 01:17:51;;;;;;;8.98;1.00;;;;;;;;;;5104202;27;20350;-38
2022/05/27 01:20:19;;;;;;;2.42;0.90;;;;;;;;;;5121905;27;20453;-38
2022/05/27 01:22:45;;;;;;;2.53;0.98;;;;;;;;;;5119026;27;20046;-42
2022/05/27 01:25:13;;;;;;;2.25;1.35;;;;;;;;;;5117915;27;20031;-39
2022/05/27 01:27:44;;;;;;;0.63;0.38;;;;;;;;;;5120693;27;20039;-41
2022/05/27 01:30:09;;;;;;;5.47;1.05;;;;;;;;;;5118109;27;20118;-40
2022/05/27 01:32:42;;;;;;;3.63;1.17;;;;;;;;;;5110095;27;20173;-40
2022/05/27 01:35:07;;;;;;;3.72;1.15;;;;;;;;;;5109928;27;20123;-41
2022/05/27 01:37:35;;;;;;;9.07;1.17;;;;;;;;;;5108294;27;20512;-38
2022/05/27 01:40:04;;;;;;;1.42;0.75;;;;;;;;;;5109161;27;20151;-39
2022/05/27 01:42:29;;;;;;;4.50;1.15;;;;;;;;;;5110670;27;20088;-39
2022/05/27 01:44:57;;;;;;;1.83;0.70;;;;;;;;;;5117598;27;20063;-39
2022/05/27 01:47:30;;;;;;;2.78;1.23;;;;;;;;;;5118723;27;20043;-38
2022/05/27 01:50:04;;;;;;;2.75;1.17;;;;;;;;;;5116362;27;20046;-39
2022/05/27 01:52:33;;;;;;;6.15;0.85;;;;;;;;;;5115117;27;20048;-42
2022/05/27 01:55:01;;;;;;;5.00;1.25;;;;;;;;;;5115090;27;20082;-45
2022/05/27 01:57:27;;;;;;;1.13;0.70;;;;;;;;;;5121309;27;20050;-40
2022/05/27 02:00:08;;;;;;;2.35;1.52;;;;;;;;;;5117595;27;20141;-44
2022/05/27 02:02:35;;;;;;;9.32;1.13;;;;;;;;;;5109499;27;20092;-41
2022/05/27 02:05:06;;;;;;;1.98;1.55;;;;;;;;;;5117673;27;20055;-42
2022/05/27 02:07:38;;;;;;;0.77;0.40;;;;;;;;;;5122159;27;20047;-39
2022/05/27 02:10:07;;;;;;;7.43;1.60;;;;;;;;;;5110531;27;20054;-38
2022/05/27 02:12:53;;;;;;;1.92;0.55;;;;;;;;;;5114372;27;20031;-40
2022/05/27 02:15:21;;;;;;;1.55;1.00;;;;;;;;;;5106663;27;20513;-40
2022/05/27 02:17:50;;;;;;;1.15;0.90;;;;;;;;;;5115844;27;20048;-38
2022/05/27 02:20:22;;;;;;;5.07;0.73;;;;;;;;;;5114687;27;20168;-41
2022/05/27 02:22:58;;;;;;;2.78;1.08;;;;;;;;;;5117377;27;20050;-42
2022/05/27 02:25:30;;;;;;;2.45;1.15;;;;;;;;;;5117213;27;20035;-40
2022/05/27 02:28:04;;;;;;;3.22;1.30;;;;;;;;;;5114811;27;20051;-42
2022/05/27 02:30:31;;;;;;;8.48;1.35;;;;;;;;;;5116681;27;20052;-42
2022/05/27 02:35:44;;;;;;;1.08;0.80;;;;;;;;;;5116726;27;20400;-39
2022/05/27 02:38:10;;;;;;;2.75;1.23;;;;;;;;;;5117231;27;20614;-42
2022/05/27 02:40:58;;;;;;;5.20;1.00;;;;;;;;;;5118274;27;20101;-39
2022/05/27 02:43:33;;;;;;;3.50;1.45;;;;;;;;;;5078697;27;20036;-41
2022/05/27 02:45:58;;;;;;;2.17;1.10;;;;;;;;;;5118264;27;20074;-43
2022/05/27 02:48:27;;;;;;;3.90;0.80;;;;;;;;;;5118353;27;20082;-44
2022/05/27 02:51:06;;;;;;;3.58;0.43;;;;;;;;;;5116366;27;20503;-37
2022/05/27 02:53:32;;;;;;;2.17;1.35;;;;;;;;;;5116813;27;20523;-37
2022/05/27 02:56:02;;;;;;;4.20;1.33;;;;;;;;;;5111329;27;20059;-37
2022/05/27 02:58:29;;;;;;;1.30;0.63;;;;;;;;;;5107422;27;20548;-38
2022/05/27 03:00:54;;;;;;;2.10;1.10;;;;;;;;;;5110047;28;20131;-38
2022/05/27 03:03:20;;;;;;;1.75;0.95;;;;;;;;;;5113622;27;20125;-38
2022/05/27 03:05:51;;;;;;;6.38;1.10;;;;;;;;;;5108298;28;20114;-35
2022/05/27 03:08:16;;;;;;;;;;;;;;;;;;5108808;27;20447;-38
2022/05/27 03:11:00;;;;;;;1.95;1.05;;;;;;;;;;5112868;28;19927;-39
2022/05/27 03:13:25;;;;;;;2.58;0.82;;;;;;;;;;5111528;28;20051;-39
2022/05/27 03:16:00;;;;;;;0.80;0.35;;;;;;;;;;5119237;28;20070;-40
2022/05/27 03:18:44;;;;;;;2.22;1.40;;;;;;;;;;5121445;27;20039;-41
2022/05/27 03:21:12;;;;;;;0.80;0.75;;;;;;;;;;5117719;27;20189;-38
2022/05/27 03:23:37;;;;;;;3.22;0.90;;;;;;;;;;5113353;27;20047;-42
2022/05/27 03:26:09;;;;;;;1.05;0.77;;;;;;;;;;5113429;27;20044;-42
2022/05/27 03:29:01;;;;;;;1.17;0.73;;;;;;;;;;5115345;27;20036;-39
2022/05/27 03:31:31;;;;;;;5.68;0.85;;;;;;;;;;5087861;27;20043;-40
2022/05/27 03:33:59;;;;;;;1.03;0.50;;;;;;;;;;5120470;27;20047;-37
2022/05/27 03:36:34;;;;;;;2.95;0.55;;;;;;;;;;5116829;27;20031;-39
2022/05/27 03:38:59;;;;;;;7.00;1.15;;;;;;;;;;5109429;27;20039;-39
2022/05/27 03:41:36;;;;;;;2.38;0.75;;;;;;;;;;5119065;27;20492;-39
2022/05/27 03:44:02;;;;;;;2.42;1.10;;;;;;;;;;5121122;27;20617;-39
2022/05/27 03:46:38;;;;;;;1.05;0.65;;;;;;;;;;5123051;27;20126;-41
2022/05/27 03:49:03;;;;;;;7.78;1.90;;;;;;;;;;5123061;27;20130;-37
2022/05/27 03:51:31;;;;;;;1.95;1.45;;;;;;;;;;5117615;27;20135;-41
2022/05/27 03:54:05;;;;;;;1.73;1.00;;;;;;;;;;5116785;27;20044;-38
2022/05/27 03:56:34;;;;;;;1.15;0.60;;;;;;;;;;5115446;27;20061;-44
2022/05/27 03:59:00;;;;;;;4.07;1.17;;;;;;;;;;5115653;27;20044;-40
2022/05/27 04:01:26;;;;;;;2.53;0.77;;;;;;;;;;5107939;27;20113;-41
2022/05/27 04:03:52;;;;;;;4.85;1.23;;;;;;;;;;5110092;27;20150;-42
2022/05/27 04:06:17;;;;;;;18.70;2.15;;;;;;;;;;5120462;27;20530;-41
2022/05/27 04:08:43;;;;;;;2.17;0.82;;;;;;;;;;5122544;27;20055;-42
2022/05/27 04:11:08;;;;;;;1.50;0.75;;;;;;;;;;5117753;27;20055;-40
2022/05/27 04:13:33;;;;;;;2.10;1.05;;;;;;;;;;5109406;27;20043;-40
2022/05/27 04:15:59;;;;;;;23.08;3.47;;;;;;;;;;5117953;27;20062;-40
2022/05/27 04:18:24;;;;;;;0.60;0.43;;;;;;;;;;5121645;27;20085;-42
2022/05/27 04:20:49;;;;;;;16.23;1.70;;;;;;;;;;5120380;27;20495;-40
2022/05/27 04:23:14;;;;;;;3.97;0.80;;;;;;;;;;5118218;27;20046;-44
2022/05/27 04:25:40;;;;;;;7.35;1.20;;;;;;;;;;5123799;27;20054;-43
2022/05/27 04:28:05;;;;;;;4.28;1.08;;;;;;;;;;5121160;27;20092;-41
2022/05/27 04:30:30;;;;;;;1.73;0.98;;;;;;;;;;5111762;27;20046;-39
2022/05/27 04:32:56;;;;;;;9.77;1.80;;;;;;;;;;5110565;27;20031;-39
2022/05/27 04:35:22;;;;;;;12.85;2.47;;;;;;;;;;5116988;27;20035;-42
2022/05/27 04:37:47;;;;;;;5.47;1.85;;;;;;;;;;5119361;27;20133;-40
2022/05/27 04:40:13;;;;;;;1.90;1.08;;;;;;;;;;5114860;27;20185;-39
2022/05/27 04:42:38;;;;;;;2.38;1.02;;;;;;;;;;5118998;27;20049;-39
2022/05/27 04:45:04;;;;;;;7.78;1.05;;;;;;;;;;5103314;27;20690;-41
2022/05/27 04:47:29;;;;;;;6.85;0.98;;;;;;;;;;5113519;27;20114;-44
2022/05/27 04:49:54;;;;;;;6.88;2.30;;;;;;;;;;5116493;27;20503;-39
2022/05/27 04:52:27;;;;;;;47.67;7.65;;;;;;;;;;5120570;27;20047;-39
2022/05/27 04:54:53;;;;;;;4.13;1.58;;;;;;;;;;5117604;27;20050;-40
2022/05/27 04:57:20;;;;;;;6.57;1.17;;;;;;;;;;5120744;27;20031;-40
2022/05/27 04:59:46;;;;;;;3.55;1.48;;;;;;;;;;5102142;27;20046;-45
2022/05/27 05:02:12;;;;;;;9.30;2.95;;;;;;;;;;5118748;27;20132;-43
2022/05/27 05:04:37;;;;;;;6.75;2.05;;;;;;;;;;5117022;27;20086;-40
2022/05/27 05:07:05;;;;;;;2.35;1.17;;;;;;;;;;5118679;27;20093;-39
2022/05/27 05:09:30;;;;;;;3.25;1.23;;;;;;;;;;5121544;27;20043;-42
2022/05/27 05:11:56;;;;;;;63.40;4.88;;;;;;;;;;5119764;27;20051;-42
2022/05/27 05:14:21;;;;;;;18.52;2.72;;;;;;;;;;5121874;27;20047;-42
2022/05/27 05:16:47;;;;;;;57.45;5.90;;;;;;;;;;5120973;27;20061;-40
2022/05/27 05:19:12;;;;;;;3.42;1.92;;;;;;;;;;5112377;27;20101;-45
2022/05/27 05:21:37;;;;;;;2.63;1.42;;;;;;;;;;5118429;27;20043;-42
2022/05/27 05:24:03;;;;;;;9.57;2.55;;;;;;;;;;5118115;27;20043;-41
2022/05/27 05:26:28;;;;;;;3.13;1.80;;;;;;;;;;5117678;27;20121;-42
2022/05/27 05:28:54;;;;;;;33.88;5.97;;;;;;;;;;5106916;27;20055;-39
2022/05/27 05:31:19;;;;;;;4.15;1.90;;;;;;;;;;5110447;27;20412;-42
2022/05/27 05:33:44;;;;;;;4.18;3.10;;;;;;;;;;5116702;27;20359;-39
2022/05/27 05:36:10;;;;;;;3.17;2.30;;;;;;;;;;5099694;27;20056;-38
2022/05/27 05:38:36;;;;;;;6.47;2.15;;;;;;;;;;5115636;27;20062;-38
2022/05/27 05:41:01;;;;;;;14.23;2.53;;;;;;;;;;5114093;27;20459;-43
2022/05/27 05:43:26;;;;;;;6.32;1.80;;;;;;;;;;5118662;27;20055;-42
2022/05/27 05:45:51;;;;;;;1.85;1.30;;;;;;;;;;5113281;27;20036;-39
2022/05/27 05:48:17;;;;;;;7.00;2.72;;;;;;;;;;5114478;27;20518;-41
2022/05/27 05:50:42;;;;;;;6.03;2.15;;;;;;;;;;5106849;27;20115;-39
2022/05/27 05:53:08;;;;;;;2.55;1.45;;;;;;;;;;5112410;27;20039;-42
2022/05/27 05:55:35;;;;;;;2.20;1.80;;;;;;;;;;5117429;27;20176;-45
2022/05/27 05:58:01;;;;;;;6.60;2.25;;;;;;;;;;5118165;27;20062;-38
2022/05/27 06:00:27;;;;;;;8.75;3.60;;;;;;;;;;5116311;27;20059;-44
2022/05/27 06:02:53;;;;;;;2.78;1.67;;;;;;;;;;5112419;27;20080;-43
2022/05/27 06:05:18;;;;;;;3.15;2.65;;;;;;;;;;5120391;27;20092;-40
2022/05/27 06:07:44;;;;;;;10.82;2.70;;;;;;;;;;5119839;27;20050;-41
2022/05/27 06:10:10;;;;;;;2.60;1.85;;;;;;;;;;5119794;27;20824;-42
2022/05/27 06:12:36;;;;;;;5.32;3.53;;;;;;;;;;5116349;27;20035;-44
2022/05/27 06:15:03;;;;;;;10.70;4.30;;;;;;;;;;5105520;27;20467;-38
2022/05/27 06:17:28;;;;;;;26.50;5.07;;;;;;;;;;5110730;27;20036;-39
2022/05/27 06:19:53;;;;;;;10.30;4.60;;;;;;;;;;5110823;27;20473;-46
2022/05/27 06:22:19;;;;;;;7.65;4.43;;;;;;;;;;5102407;27;20519;-43
2022/05/27 06:24:44;;;;;;;22.55;7.15;;;;;;;;;;5113580;27;20415;-39
2022/05/27 06:27:10;;;;;;;11.98;6.97;;;;;;;;;;5115483;27;20118;-39
2022/05/27 06:35:03;;;;;;;25.10;16.95;;;;;;;;;;5119397;27;20070;-39
2022/05/27 06:37:29;;;;;;;36.92;13.90;;;;;;;;;;5119857;27;20027;-43
2022/05/27 06:39:54;;;;;;;52.70;19.15;;;;;;;;;;5115933;27;20059;-45
2022/05/27 06:42:19;;;;;;;66.30;15.02;;;;;;;;;;5115217;27;20043;-45
2022/05/27 06:44:45;;;;;;;25.48;12.52;;;;;;;;;;5116219;27;20126;-46
2022/05/27 06:47:11;;;;;;;20.15;13.98;;;;;;;;;;5111579;27;20074;-40
2022/05/27 06:49:37;;;;;;;24.25;17.38;;;;;;;;;;5110260;27;20087;-43
2022/05/27 06:52:03;;;;;;;37.63;20.20;;;;;;;;;;5109955;27;20483;-39
2022/05/27 06:54:28;;;;;;;60.28;25.25;;;;;;;;;;5110550;27;20047;-43
2022/05/27 06:56:54;;;;;;;37.05;19.58;;;;;;;;;;5118761;27;20050;-43
2022/05/27 06:59:20;;;;;;;23.63;17.23;;;;;;;;;;5114734;27;20059;-45
2022/05/27 07:01:46;;;;;;;46.97;23.27;;;;;;;;;;5097140;27;20040;-41
2022/05/27 07:04:12;;;;;;;27.35;16.08;;;;;;;;;;5111450;28;20059;-43
2022/05/27 07:06:47;;;;;;;21.15;13.20;;;;;;;;;;5110541;27;20039;-40
2022/05/27 07:09:14;;;;;;;33.80;14.65;;;;;;;;;;5103599;28;20159;-41
2022/05/27 07:11:40;;;;;;;21.85;13.18;;;;;;;;;;5116261;28;20047;-43
2022/05/27 07:14:06;;;;;;;27.63;15.77;;;;;;;;;;5122630;28;20061;-43
2022/05/27 07:16:31;;;;;;;18.77;14.38;;;;;;;;;;5117403;28;20048;-41
2022/05/27 07:18:56;;;;;;;20.30;12.23;;;;;;;;;;5119148;28;20112;-45
2022/05/27 07:21:22;;;;;;;30.15;11.48;;;;;;;;;;5118244;28;20042;-41
2022/05/27 07:23:47;;;;;;;26.35;19.92;;;;;;;;;;5107703;28;20036;-41
2022/05/27 07:26:12;;;;;;;35.63;20.77;;;;;;;;;;5106618;28;20120;-42
2022/05/27 07:28:38;;;;;;;34.58;17.42;;;;;;;;;;5116978;28;20075;-41
2022/05/27 07:31:03;;;;;;;29.00;17.23;;;;;;;;;;5115850;27;20171;-43
2022/05/27 07:33:29;;;;;;;18.85;13.02;;;;;;;;;;5116913;27;20127;-42
2022/05/27 07:35:54;;;;;;;9.32;8.27;;;;;;;;;;5106391;27;20058;-42
2022/05/27 07:38:19;;;;;;;49.38;12.55;;;;;;;;;;5113665;27;20040;-46
2022/05/27 07:40:45;;;;;;;31.15;9.27;;;;;;;;;;5106583;27;20055;-42
2022/05/27 07:43:10;;;;;;;17.58;8.43;;;;;;;;;;5118220;28;20043;-45
2022/05/27 07:45:38;;;;;;;10.00;7.47;;;;;;;;;;5117865;28;20645;-43
2022/05/27 07:48:04;;;;;;;19.80;10.50;;;;;;;;;;5111316;27;20089;-39
2022/05/27 07:50:29;;;;;;;24.52;7.65;;;;;;;;;;5111984;27;20474;-41
2022/05/27 07:52:54;;;;;;;6.32;3.67;;;;;;;;;;5109439;27;20048;-59
2022/05/27 07:55:20;;;;;;;10.68;4.05;;;;;;;;;;5116015;28;20058;-60
2022/05/27 07:57:46;;;;;;;21.00;8.85;;;;;;;;;;5105027;28;20035;-61
2022/05/27 08:00:15;;;;;;;11.68;3.90;;;;;;;;;;5107256;28;20142;-60
2022/05/27 08:02:40;;;;;;;18.38;3.30;;;;;;;;;;5102977;28;20055;-60
2022/05/27 08:05:07;;;;;;;3.38;2.50;;;;;;;;;;5113070;27;20113;-65
2022/05/27 08:07:32;;;;;;;39.55;7.68;;;;;;;;;;5106152;27;20128;-64
2022/05/27 08:09:58;;;;;;;34.40;5.13;;;;;;;;;;5118041;27;20426;-59
2022/05/27 08:12:24;;;;;;;5.50;3.10;;;;;;;;;;5113097;27;20557;-57
2022/05/27 08:14:49;;;;;;;4.38;2.25;;;;;;;;;;5119413;27;20043;-61
2022/05/27 08:17:15;;;;;;;4.25;3.42;;;;;;;;;;5103157;27;20044;-62
2022/05/27 08:19:40;;;;;;;3.58;1.85;;;;;;;;;;5119817;27;20103;-63
2022/05/27 08:22:06;;;;;;;3.30;2.13;;;;;;;;;;5119251;27;20149;-61
2022/05/27 08:24:31;;;;;;;4.25;1.52;;;;;;;;;;5112544;27;20522;-62
2022/05/27 08:26:56;;;;;;;14.77;4.32;;;;;;;;;;5118418;27;20035;-62
2022/05/27 08:29:22;;;;;;;7.85;1.90;;;;;;;;;;5112645;27;20193;-62
2022/05/27 08:31:47;;;;;;;7.68;2.72;;;;;;;;;;5108650;27;20043;-62
2022/05/27 08:39:46;;;;;;;7.78;5.65;;;;;;;;;;5118029;27;20529;-61
2022/05/27 08:42:30;;;;;;;10.63;3.70;;;;;;;;;;5118113;27;20061;-62
2022/05/27 08:44:58;;;;;;;6.25;2.00;;;;;;;;;;5107769;27;20344;-61
2022/05/27 08:47:56;;;;;;;3.28;1.58;;;;;;;;;;5111365;27;20066;-62
2022/05/27 08:50:32;;;;;;;6.50;2.58;;;;;;;;;;5071849;27;20240;-62
2022/05/27 08:53:00;;;;;;;4.75;2.17;;;;;;;;;;5118240;27;20520;-62
2022/05/27 09:01:05;;;;;;;7.65;2.47;;;;;;;;;;5115421;27;20046;-62
2022/05/27 09:03:33;;;;;;;3.78;1.83;;;;;;;;;;5104289;27;20723;-62
2022/05/27 09:06:01;;;;;;;5.00;1.95;;;;;;;;;;5114345;27;20047;-62
2022/05/27 09:08:27;;;;;;;59.33;6.80;;;;;;;;;;5114303;27;20054;-62
2022/05/27 09:11:02;;;;;;;14.13;4.70;;;;;;;;;;5122319;27;20047;-62
2022/05/27 09:13:35;;;;;;;4.85;2.25;;;;;;;;;;5121252;27;20075;-62
2022/05/27 09:16:11;;;;;;;10.68;4.03;;;;;;;;;;5117659;27;20048;-62
2022/05/27 09:18:40;;;;;;;17.45;2.50;;;;;;;;;;5120697;27;20046;-62
2022/05/27 09:21:25;;;;;;;25.48;15.05;;;;;;;;;;5119072;27;20527;-63
2022/05/27 09:23:50;;;;;;;24.30;14.25;;;;;;;;;;5117928;27;20641;-63
2022/05/27 09:26:21;;;;;;;30.98;22.67;;;;;;;;;;5117891;27;20523;-63
2022/05/27 09:28:47;;;;;;;16.15;12.00;;;;;;;;;;5120693;27;20106;-62
2022/05/27 09:31:14;;;;;;;17.67;12.73;;;;;;;;;;5119402;27;20554;-62
2022/05/27 09:33:40;;;;;;;21.30;13.20;;;;;;;;;;5118421;27;20042;-63
2022/05/27 09:36:06;;;;;;;12.20;6.53;;;;;;;;;;5108929;27;20110;-63
2022/05/27 09:38:34;;;;;;;5.95;4.78;;;;;;;;;;5105798;27;20031;-62
2022/05/27 09:41:08;;;;;;;12.20;4.70;;;;;;;;;;5111481;27;20271;-63
2022/05/27 09:43:33;;;;;;;7.93;3.70;;;;;;;;;;5109408;27;20156;-62
2022/05/27 09:46:00;;;;;;;4.15;3.17;;;;;;;;;;5119996;27;20538;-63
2022/05/27 09:48:26;;;;;;;5.40;2.47;;;;;;;;;;5117889;27;20047;-62
2022/05/27 09:50:53;;;;;;;3.22;1.80;;;;;;;;;;5117199;27;20047;-63
2022/05/27 09:53:39;;;;;;;3.67;2.03;;;;;;;;;;5115906;27;20085;-62
2022/05/27 09:56:07;;;;;;;5.63;2.58;;;;;;;;;;5119714;27;20047;-62
2022/05/27 09:58:36;;;;;;;4.45;2.55;;;;;;;;;;5120162;27;20164;-63
2022/05/27 10:01:04;;;;;;;3.28;1.80;;;;;;;;;;5115680;27;20119;-62
2022/05/27 10:03:39;;;;;;;4.65;1.58;;;;;;;;;;5121953;27;20035;-62
2022/05/27 10:06:10;;;;;;;11.60;3.13;;;;;;;;;;5119480;27;20074;-63
2022/05/27 10:08:43;;;;;;;3.28;1.88;;;;;;;;;;5118175;27;20032;-62
2022/05/27 10:11:20;;;;;;;7.82;2.40;;;;;;;;;;5115920;27;20050;-62
2022/05/27 10:13:46;;;;;;;3.80;1.83;;;;;;;;;;5121424;27;20039;-62
2022/05/27 10:16:22;;;;;;;31.20;6.97;;;;;;;;;;5117264;27;20039;-62
2022/05/27 10:18:48;;;;;;;5.80;1.75;;;;;;;;;;5107587;27;20134;-62
2022/05/27 10:21:20;;;;;;;22.00;5.95;;;;;;;;;;5110363;27;20119;-63
2022/05/27 10:23:46;;;;;;;3.70;2.10;;;;;;;;;;5117058;27;20069;-62
2022/05/27 10:26:41;;;;;;;10.15;3.15;;;;;;;;;;5116863;27;20407;-63
2022/05/27 10:29:08;;;;;;;5.25;1.48;;;;;;;;;;5105020;27;20054;-62
2022/05/27 10:31:34;;;;;;;5.00;1.52;;;;;;;;;;5118144;27;20143;-63
2022/05/27 10:34:00;;;;;;;10.70;3.28;;;;;;;;;;5117194;27;20070;-64
2022/05/27 10:36:31;;;;;;;4.78;2.60;;;;;;;;;;5117432;27;20087;-64
2022/05/27 10:39:00;;;;;;;9.05;2.25;;;;;;;;;;5106229;27;20055;-64
2022/05/27 10:41:46;;;;;;;2.95;1.75;;;;;;;;;;5109420;27;20048;-64
2022/05/27 10:44:17;;;;;;;1.15;0.75;;;;;;;;;;5109867;27;20043;-63
2022/05/27 10:46:52;;;;;;;5.15;1.83;;;;;;;;;;5118238;27;20043;-63
2022/05/27 10:49:33;;;;;;;7.40;3.03;;;;;;;;;;5118713;27;20134;-64
2022/05/27 10:52:17;;;;;;;19.23;4.18;;;;;;;;;;5113955;27;20040;-64
2022/05/27 10:54:48;;;;;;;17.25;4.38;;;;;;;;;;5117034;27;20079;-64
2022/05/27 11:03:18;;;;;;;5.53;2.47;;;;;;;;;;5117856;27;20062;-62
2022/05/27 11:05:55;;;;;;;11.50;1.67;;;;;;;;;;5107075;28;20134;-62
2022/05/27 11:08:21;;;;;;;12.73;4.53;;;;;;;;;;5118860;27;20070;-62
2022/05/27 11:10:47;;;;;;;16.05;4.80;;;;;;;;;;5109380;28;20091;-62
2022/05/27 11:16:21;;;;;;;18.15;10.00;;;;;;;;;;5105992;27;20054;-64
2022/05/27 11:19:01;;;;;;;13.13;2.53;;;;;;;;;;5119847;27;20046;-60
2022/05/27 11:21:29;;;;;;;3.72;2.15;;;;;;;;;;5117758;27;20143;-60
2022/05/27 11:24:13;;;;;;;11.05;3.58;;;;;;;;;;5109705;28;20123;-60
2022/05/27 11:27:04;;;;;;;9.18;2.45;;;;;;;;;;5114821;28;20043;-60
2022/05/27 11:29:45;;;;;;;17.38;3.47;;;;;;;;;;5116794;28;20099;-60
2022/05/27 11:32:10;;;;;;;;;;;;;;;;;;5119550;28;20047;-60
2022/05/27 11:34:51;;;;;;;8.90;4.37;;;;;;;;;;5107742;28;20530;-61
2022/05/27 11:37:25;;;;;;;30.02;24.20;;;;;;;;;;5111025;28;20089;-61
2022/05/27 11:40:09;;;;;;;19.70;16.50;;;;;;;;;;5122551;27;20078;-61
2022/05/27 11:42:52;;;;;;;32.08;15.85;;;;;;;;;;5111313;27;20054;-61
2022/05/27 11:45:21;;;;;;;7.45;4.93;;;;;;;;;;5120225;27;20043;-62
2022/05/27 11:48:06;;;;;;;7.00;2.83;;;;;;;;;;5122174;27;20074;-61
2022/05/27 11:50:50;;;;;;;10.55;4.05;;;;;;;;;;5111390;27;20046;-62
2022/05/27 11:53:27;;;;;;;2.85;1.48;;;;;;;;;;5112681;27;20183;-61
2022/05/27 11:56:12;;;;;;;8.07;2.08;;;;;;;;;;5110223;27;20242;-61
2022/05/27 11:58:40;;;;;;;5.03;3.40;;;;;;;;;;5112554;27;20044;-61
2022/05/27 12:01:09;;;;;;;5.40;2.70;;;;;;;;;;5121711;27;20050;-61
2022/05/27 12:04:13;;;;;;;8.00;2.35;;;;;;;;;;5117350;27;20539;-61
2022/05/27 12:06:43;;;;;;;2.58;1.10;;;;;;;;;;5046458;28;20049;-61
2022/05/27 12:09:13;;;;;;;6.25;3.13;;;;;;;;;;5044932;28;20516;-61
2022/05/27 12:11:47;;;;;;;18.03;2.60;;;;;;;;;;5085344;27;20050;-61
2022/05/27 12:14:16;;;;;;;14.68;2.63;;;;;;;;;;5117563;27;20043;-61
2022/05/27 12:16:43;;;;;;;22.85;3.50;;;;;;;;;;5117807;27;20047;-62
2022/05/27 12:19:32;;;;;;;2.13;1.27;;;;;;;;;;5119671;27;20129;-61
2022/05/27 12:22:00;;;;;;;37.05;5.50;;;;;;;;;;5105313;27;20088;-63
2022/05/27 12:24:31;;;;;;;2.70;1.30;;;;;;;;;;5121561;27;20133;-64
2022/05/27 12:26:57;;;;;;;28.90;8.73;;;;;;;;;;5117469;27;20031;-62
2022/05/27 12:29:24;;;;;;;1.70;1.30;;;;;;;;;;5115930;27;20093;-61
2022/05/27 12:31:50;;;;;;;18.63;2.65;;;;;;;;;;5116628;27;20375;-61
2022/05/27 12:34:27;;;;;;;3.72;1.45;;;;;;;;;;5119469;27;20507;-67
2022/05/27 12:36:58;;;;;;;20.92;4.30;;;;;;;;;;5118557;27;20040;-64
2022/05/27 12:39:25;;;;;;;6.53;2.03;;;;;;;;;;5111912;27;20831;-63
2022/05/27 12:42:06;;;;;;;5.50;1.08;;;;;;;;;;5119259;27;20043;-65
2022/05/27 12:44:31;;;;;;;16.77;1.80;;;;;;;;;;5113226;27;20505;-61
2022/05/27 12:47:01;;;;;;;7.43;1.23;;;;;;;;;;5120083;27;20039;-63
2022/05/27 12:49:34;;;;;;;20.50;4.45;;;;;;;;;;5115456;27;20110;-60
2022/05/27 12:52:00;;;;;;;5.22;1.70;;;;;;;;;;5113508;27;20047;-61
2022/05/27 12:54:45;;;;;;;6.75;1.20;;;;;;;;;;5099838;27;20047;-61
2022/05/27 13:03:07;;;;;;;3.28;1.75;;;;;;;;;;5110235;27;20513;-60
2022/05/27 13:06:02;;;;;;;2.78;1.48;;;;;;;;;;5113757;27;20048;-59
2022/05/27 13:08:31;;;;;;;5.93;2.50;;;;;;;;;;5095210;27;20422;-60
2022/05/27 13:10:56;;;;;;;2.70;1.02;;;;;;;;;;5118805;27;20047;-60
2022/05/27 13:13:25;;;;;;;8.35;2.92;;;;;;;;;;5118958;27;20055;-61
2022/05/27 13:16:11;;;;;;;6.20;2.10;;;;;;;;;;5121710;27;20054;-60
2022/05/27 13:18:38;;;;;;;1.98;0.82;;;;;;;;;;5074454;27;20463;-60
2022/05/27 13:21:11;;;;;;;1.88;1.35;;;;;;;;;;5119517;27;20050;-60
2022/05/27 13:23:55;;;;;;;1.88;0.68;;;;;;;;;;5119958;27;20039;-60
2022/05/27 13:26:39;;;;;;;5.03;0.85;;;;;;;;;;5107344;27;20043;-61
2022/05/27 13:29:28;;;;;;;1.48;1.08;;;;;;;;;;5118761;27;20047;-60
2022/05/27 13:31:56;;;;;;;2.47;0.95;;;;;;;;;;5119201;27;20127;-61
2022/05/27 13:34:30;;;;;;;22.83;5.15;;;;;;;;;;5118659;27;20059;-60
2022/05/27 13:36:57;;;;;;;2.72;0.90;;;;;;;;;;5119533;27;20139;-60
2022/05/27 13:39:25;;;;;;;5.50;1.38;;;;;;;;;;5117262;27;20047;-60
2022/05/27 13:41:52;;;;;;;2.80;1.20;;;;;;;;;;5115830;27;20043;-60
2022/05/27 13:44:20;;;;;;;5.53;1.23;;;;;;;;;;5114604;27;20054;-61
2022/05/27 13:46:47;;;;;;;1.23;0.73;;;;;;;;;;5121182;27;20046;-60
2022/05/27 13:49:19;;;;;;;2.25;0.98;;;;;;;;;;5121271;27;20035;-59
2022/05/27 13:51:45;;;;;;;1.27;0.60;;;;;;;;;;5114336;27;20050;-61
2022/05/27 13:54:18;;;;;;;15.75;3.92;;;;;;;;;;5119266;27;20043;-61
2022/05/27 13:56:57;;;;;;;8.93;1.25;;;;;;;;;;5116343;27;20078;-60
2022/05/27 13:59:27;;;;;;;8.68;1.65;;;;;;;;;;5114276;27;20074;-60
2022/05/27 14:01:56;;;;;;;1.88;0.75;;;;;;;;;;5115213;27;20142;-60
2022/05/27 14:04:36;;;;;;;8.63;1.98;;;;;;;;;;5119755;27;20054;-60
2022/05/27 14:07:01;;;;;;;3.00;1.40;;;;;;;;;;5116160;27;20171;-61
2022/05/27 14:09:29;;;;;;;3.70;1.10;;;;;;;;;;5120106;27;20122;-61
2022/05/27 14:11:59;;;;;;;7.13;1.35;;;;;;;;;;5113237;27;20055;-61
2022/05/27 14:14:37;;;;;;;14.02;1.70;;;;;;;;;;5114786;27;20051;-60
2022/05/27 14:17:03;;;;;;;1.70;0.90;;;;;;;;;;5118394;27;20043;-60
2022/05/27 14:19:28;;;;;;;2.97;1.17;;;;;;;;;;5121466;27;20661;-59
2022/05/27 14:24:42;;;;;;;1.40;1.10;;;;;;;;;;5101172;27;20054;-61
2022/05/27 14:27:12;;;;;;;1.77;1.15;;;;;;;;;;5111857;27;20034;-60
2022/05/27 14:29:37;;;;;;;14.45;1.25;;;;;;;;;;5119422;27;20585;-60
2022/05/27 14:32:04;;;;;;;1.67;0.95;;;;;;;;;;5102195;27;20055;-61
2022/05/27 14:34:32;;;;;;;1.05;0.70;;;;;;;;;;5116317;27;20048;-60
2022/05/27 14:37:00;;;;;;;1.42;0.93;;;;;;;;;;5116941;27;20074;-60
2022/05/27 14:39:25;;;;;;;8.05;1.48;;;;;;;;;;5120102;27;20047;-60
2022/05/27 14:41:51;;;;;;;7.35;3.00;;;;;;;;;;5114759;27;20046;-59
2022/05/27 14:44:24;;;;;;;10.68;1.98;;;;;;;;;;5117009;27;20466;-59
2022/05/27 14:47:01;;;;;;;2.65;0.63;;;;;;;;;;5117110;27;20035;-60
2022/05/27 14:49:28;;;;;;;3.22;0.77;;;;;;;;;;5120756;27;20135;-59
2022/05/27 14:51:53;;;;;;;2.55;1.60;;;;;;;;;;5117728;27;20078;-60
2022/05/27 14:54:26;;;;;;;2.97;1.67;;;;;;;;;;5118987;27;20096;-60
2022/05/27 14:57:10;;;;;;;5.47;1.23;;;;;;;;;;5107573;27;20623;-59
2022/05/27 14:59:37;;;;;;;1.73;1.10;;;;;;;;;;5110283;27;20076;-60
2022/05/27 15:02:02;;;;;;;13.23;1.33;;;;;;;;;;5119852;27;20043;-60
2022/05/27 15:04:29;;;;;;;4.20;1.52;;;;;;;;;;5109822;27;20058;-60
2022/05/27 15:06:57;;;;;;;0.93;0.55;;;;;;;;;;5116579;28;20526;-60
2022/05/27 15:09:25;;;;;;;2.38;1.15;;;;;;;;;;5113843;28;20062;-60
2022/05/27 15:11:51;;;;;;;11.82;1.25;;;;;;;;;;5117358;27;20050;-61
2022/05/27 15:14:22;;;;;;;2.38;0.77;;;;;;;;;;5124682;27;20059;-60
2022/05/27 15:17:05;;;;;;;1.50;0.95;;;;;;;;;;5120379;27;20062;-60
2022/05/27 15:19:39;;;;;;;1.00;0.85;;;;;;;;;;5103805;27;20047;-59
2022/05/27 15:22:07;;;;;;;2.97;0.82;;;;;;;;;;5111326;27;20038;-60
2022/05/27 15:24:37;;;;;;;1.92;0.65;;;;;;;;;;5121298;27;20051;-60
2022/05/27 15:33:08;;;;;;;3.40;1.63;;;;;;;;;;5121712;27;20042;-60
2022/05/27 15:35:36;;;;;;;1.73;1.23;;;;;;;;;;5115531;27;20071;-60